createdAt,value
2023-03-24T00:02:52.652Z,97127.47
2023-03-24T00:07:55.476Z,97127.38
2023-03-24T00:13:01.460Z,97133.22
2023-03-24T00:18:04.576Z,97123.50
2023-03-24T00:23:07.181Z,97121.81
2023-03-24T00:28:10.276Z,97103.50
2023-03-24T00:33:13.763Z,97096.16
2023-03-24T00:38:16.593Z,97100.69
2023-03-24T00:43:20.036Z,97076.34
2023-03-24T00:48:24.476Z,97074.09
2023-03-24T00:53:29.566Z,97070.88
2023-03-24T00:58:34.570Z,97062.44
2023-03-24T01:03:43.589Z,97047.00
2023-03-24T01:08:46.714Z,97044.00
2023-03-24T01:13:51.118Z,97027.47
2023-03-24T01:18:53.885Z,97024.38
2023-03-24T01:23:56.901Z,97017.84
2023-03-24T01:28:59.772Z,97015.63
2023-03-24T01:34:02.783Z,97009.94
2023-03-24T01:39:05.806Z,97009.91
2023-03-24T01:44:46.429Z,96995.97
2023-03-24T01:49:54.303Z,96996.72
2023-03-24T01:55:09.472Z,96990.44
2023-03-24T02:00:14.766Z,96987.13
2023-03-24T02:05:31.517Z,96988.81
2023-03-24T02:10:38.001Z,96980.72
2023-03-24T02:16:09.388Z,96989.50
2023-03-24T02:21:33.944Z,96985.59
2023-03-24T02:27:03.398Z,96976.50
2023-03-24T02:32:45.135Z,96972.34
2023-03-24T02:38:05.539Z,96970.84
2023-03-24T02:43:46.757Z,96979.25
2023-03-24T02:49:21.705Z,96962.56
2023-03-24T02:54:52.976Z,96967.09
2023-03-24T03:00:14.205Z,96962.81
2023-03-24T03:05:46.689Z,96953.19
2023-03-24T03:10:53.706Z,96942.53
2023-03-24T03:16:00.692Z,96940.06
2023-03-24T03:21:11.122Z,96932.13
2023-03-24T03:26:18.390Z,96926.47
2023-03-24T03:31:30.256Z,96931.72
2023-03-24T03:37:09.198Z,96935.50
2023-03-24T03:42:12.602Z,96933.78
2023-03-24T03:47:16.524Z,96929.81
2023-03-24T03:52:22.033Z,96928.19
2023-03-24T03:57:26.950Z,96936.25
2023-03-24T04:03:22.475Z,96934.56
2023-03-24T04:08:49.211Z,96928.41
2023-03-24T04:14:22.321Z,96933.91
2023-03-24T04:20:12.784Z,96947.97
2023-03-24T04:25:31.404Z,96936.41
2023-03-24T04:30:33.958Z,96928.19
2023-03-24T04:35:49.439Z,96917.75
2023-03-24T04:40:57.979Z,96913.38
2023-03-24T04:46:00.621Z,96921.44
2023-03-24T04:51:28.898Z,96925.25
2023-03-24T04:56:48.005Z,96941.31
2023-03-24T05:02:14.092Z,96955.28
2023-03-24T05:07:52.228Z,96984.19
2023-03-24T05:12:55.126Z,96991.00
2023-03-24T05:18:23.329Z,97004.97
2023-03-24T05:23:25.909Z,97028.84
2023-03-24T05:28:29.547Z,97035.75
2023-03-24T05:33:32.308Z,97046.34
2023-03-24T05:38:36.418Z,97064.91
2023-03-24T05:43:39.403Z,97054.91
2023-03-24T05:48:51.456Z,97061.47
2023-03-24T05:53:56.306Z,97072.44
2023-03-24T05:59:05.362Z,97066.97
2023-03-24T06:04:30.125Z,97073.16
2023-03-24T06:09:42.698Z,97063.13
2023-03-24T06:14:48.576Z,97055.66
2023-03-24T06:19:52.023Z,97065.13
2023-03-24T06:25:17.072Z,97059.28
2023-03-24T06:30:31.192Z,97074.22
2023-03-24T06:35:33.936Z,97067.41
2023-03-24T06:40:41.279Z,97070.88
2023-03-24T06:45:45.993Z,97082.09
2023-03-24T06:50:56.110Z,97079.47
2023-03-24T06:55:58.944Z,97072.94
2023-03-24T07:01:07.644Z,97082.84
2023-03-24T07:06:29.947Z,97088.88
2023-03-24T07:11:41.689Z,97092.00
2023-03-24T07:16:44.966Z,97110.75
2023-03-24T07:22:12.580Z,97101.00
2023-03-24T07:27:39.424Z,97104.28
2023-03-24T07:32:44.120Z,97116.56
2023-03-24T07:37:47.319Z,97114.19
2023-03-24T07:42:50.899Z,97129.16
2023-03-24T07:48:19.814Z,97129.66
2023-03-24T07:53:22.603Z,97137.44
2023-03-24T07:58:26.623Z,97139.47
2023-03-24T08:03:45.443Z,97136.47
2023-03-24T08:08:51.603Z,97137.72
2023-03-24T08:13:54.287Z,97136.16
2023-03-24T08:19:00.138Z,97147.53
2023-03-24T08:24:02.708Z,97118.69
2023-03-24T08:29:06.200Z,97106.94
2023-03-24T08:34:11.785Z,97092.69
2023-03-24T08:39:14.767Z,97041.81
2023-03-24T08:44:17.772Z,97029.09
2023-03-24T08:49:20.372Z,97031.47
2023-03-24T08:54:24.049Z,97070.88
2023-03-24T08:59:26.956Z,97079.69
2023-03-24T09:04:29.615Z,97100.81
2023-03-24T09:09:33.456Z,97107.47
2023-03-24T09:14:36.127Z,97081.81
2023-03-24T09:19:39.390Z,97104.28
2023-03-24T09:24:51.265Z,97098.84
2023-03-24T09:29:54.079Z,97113.31
2023-03-24T09:34:56.724Z,97108.97
2023-03-24T09:40:01.509Z,97088.03
2023-03-24T09:45:18.458Z,97094.91
2023-03-24T09:50:33.567Z,97103.00
2023-03-24T09:55:39.617Z,97093.66
2023-03-24T10:00:44.930Z,97098.31
2023-03-24T10:06:22.939Z,97084.28
2023-03-24T10:11:43.855Z,97094.97
2023-03-24T10:16:58.219Z,97092.56
2023-03-24T10:22:38.352Z,97101.06
2023-03-24T10:27:45.557Z,97096.22
2023-03-24T10:32:48.299Z,97101.19
2023-03-24T10:37:52.275Z,97088.94
2023-03-24T10:43:06.179Z,97112.09
2023-03-24T10:48:14.532Z,97132.06
2023-03-24T10:53:21.186Z,97130.38
2023-03-24T10:58:35.840Z,97124.50
2023-03-24T11:03:38.762Z,97139.91
2023-03-24T11:08:42.221Z,97132.13
2023-03-24T11:13:57.265Z,97112.72
2023-03-24T11:19:01.843Z,97145.78
2023-03-24T11:24:12.083Z,97134.16
2023-03-24T11:29:15.989Z,97130.66
2023-03-24T11:34:34.465Z,97133.28
2023-03-24T11:39:37.153Z,97137.59
2023-03-24T11:44:39.723Z,97146.50
2023-03-24T11:50:09.808Z,97148.44
2023-03-24T11:55:40.647Z,97141.00
2023-03-24T12:00:48.277Z,97131.19
2023-03-24T12:06:06.764Z,97138.63
2023-03-24T12:11:28.852Z,97159.22
2023-03-24T12:16:46.909Z,97139.69
2023-03-24T12:21:59.762Z,97126.53
2023-03-24T12:27:02.615Z,97121.44
2023-03-24T12:32:23.524Z,97132.94
2023-03-24T12:37:47.324Z,97145.03
2023-03-24T12:43:03.534Z,97149.88
2023-03-24T12:48:26.870Z,97144.22
2023-03-24T12:53:47.547Z,97135.84
2023-03-24T12:58:52.090Z,97138.31
2023-03-24T13:04:08.256Z,97112.91
2023-03-24T13:09:19.792Z,97113.59
2023-03-24T13:14:30.594Z,97112.66
2023-03-24T13:19:35.936Z,97109.97
2023-03-24T13:24:38.873Z,97122.81
2023-03-24T13:29:49.229Z,97133.16
2023-03-24T13:35:18.955Z,97132.59
2023-03-24T13:40:28.152Z,97125.31
2023-03-24T13:45:51.788Z,97129.94
2023-03-24T13:51:01.984Z,97137.53
2023-03-24T13:56:07.279Z,97144.94
2023-03-24T14:01:12.771Z,97148.50
2023-03-24T14:06:18.621Z,97130.47
2023-03-24T14:11:38.409Z,97139.13
2023-03-24T14:17:05.040Z,97138.31
2023-03-24T14:22:13.264Z,97142.44
2023-03-24T14:27:32.085Z,97155.06
2023-03-24T14:32:46.237Z,97138.28
2023-03-24T14:37:55.517Z,97150.53
2023-03-24T14:43:15.931Z,97157.28
2023-03-24T14:48:34.965Z,97162.34
2023-03-24T14:53:39.437Z,97174.41
2023-03-24T14:58:44.563Z,97159.97
2023-03-24T15:03:52.950Z,97167.81
2023-03-24T15:08:58.784Z,97167.28
2023-03-24T15:14:03.850Z,97183.19
2023-03-24T15:19:19.987Z,97180.00
2023-03-24T15:24:22.557Z,97180.88
2023-03-24T15:29:26.005Z,97169.31
2023-03-24T15:34:35.492Z,97159.13
2023-03-24T15:39:39.875Z,97165.84
2023-03-24T15:44:42.755Z,97153.06
2023-03-24T15:49:55.233Z,97149.41
2023-03-24T15:55:35.067Z,97156.06
2023-03-24T16:00:42.566Z,97143.44
2023-03-24T16:05:51.527Z,97138.38
2023-03-24T16:11:05.185Z,97141.59
2023-03-24T16:16:17.082Z,97138.84
2023-03-24T16:21:25.268Z,97124.75
2023-03-24T16:26:31.388Z,97131.19
2023-03-24T16:31:36.905Z,97131.28
2023-03-24T16:36:39.648Z,97134.59
2023-03-24T16:41:42.541Z,97141.38
2023-03-24T16:46:47.148Z,97155.31
2023-03-24T16:51:50.294Z,97157.47
2023-03-24T16:56:52.991Z,97155.00
2023-03-24T17:02:04.119Z,97147.09
2023-03-24T17:07:06.922Z,97160.94
2023-03-24T17:12:10.135Z,97153.06
2023-03-24T17:17:12.961Z,97154.78
2023-03-24T17:22:19.534Z,97145.66
2023-03-24T17:27:22.261Z,97147.91
2023-03-24T17:32:30.099Z,97151.22
2023-03-24T17:37:32.875Z,97151.94
2023-03-24T17:42:35.978Z,97154.25
2023-03-24T17:47:39.842Z,97161.84
2023-03-24T17:52:49.361Z,97182.34
2023-03-24T17:57:51.885Z,97182.84
2023-03-24T18:02:54.418Z,97188.53
2023-03-24T18:07:57.116Z,97198.63
2023-03-24T18:13:01.632Z,97208.13
2023-03-24T18:18:04.501Z,97212.38
2023-03-24T18:23:07.571Z,97213.63
2023-03-24T18:28:10.289Z,97218.63
2023-03-24T18:33:16.147Z,97222.28
2023-03-24T18:38:22.393Z,97221.03
2023-03-24T18:43:26.614Z,97239.53
2023-03-24T18:48:29.153Z,97243.50
2023-03-24T18:53:34.699Z,97248.47
2023-03-24T18:58:40.804Z,97251.03
2023-03-24T19:03:45.043Z,97256.47
2023-03-24T19:08:53.264Z,97260.75
2023-03-24T19:13:56.990Z,97256.78
2023-03-24T19:19:00.257Z,97259.47
2023-03-24T19:24:02.927Z,97265.84
2023-03-24T19:29:06.442Z,97279.16
2023-03-24T19:34:09.063Z,97283.53
2023-03-24T19:39:15.321Z,97301.88
2023-03-24T19:44:18.170Z,97294.25
2023-03-24T19:49:21.521Z,97291.28
2023-03-24T19:54:24.265Z,97298.25
2023-03-24T19:59:26.876Z,97295.63
2023-03-24T20:04:29.510Z,97298.72
2023-03-24T20:09:32.162Z,97296.88
2023-03-24T20:14:34.745Z,97302.56
2023-03-24T20:19:37.298Z,97305.56
2023-03-24T20:24:40.265Z,97308.69
2023-03-24T20:29:43.156Z,97309.53
2023-03-24T20:34:46.216Z,97301.69
2023-03-24T20:39:48.916Z,97308.91
2023-03-24T20:44:51.877Z,97304.63
2023-03-24T20:49:54.499Z,97297.13
2023-03-24T20:54:57.023Z,97303.44
2023-03-24T20:59:59.845Z,97302.16
2023-03-24T21:05:03.932Z,97291.31
2023-03-24T21:10:07.205Z,97300.50
2023-03-24T21:15:10.689Z,97296.91
2023-03-24T21:20:14.050Z,97292.59
2023-03-24T21:25:16.887Z,97299.94
2023-03-24T21:30:20.327Z,97304.38
2023-03-24T21:35:23.614Z,97301.97
2023-03-24T21:40:26.917Z,97317.81
2023-03-24T21:45:32.594Z,97319.38
2023-03-24T21:50:38.965Z,97316.94
2023-03-24T21:55:52.580Z,97305.53
2023-03-24T22:00:55.874Z,97305.44
2023-03-24T22:05:58.407Z,97307.28
2023-03-24T22:11:04.374Z,97303.38
2023-03-24T22:16:07.985Z,97311.72
2023-03-24T22:21:11.559Z,97315.66
2023-03-24T22:26:16.960Z,97318.31
2023-03-24T22:31:23.174Z,97327.53
2023-03-24T22:36:25.961Z,97340.56
2023-03-24T22:41:28.549Z,97341.09
2023-03-24T22:46:31.136Z,97362.34
2023-03-24T22:51:33.930Z,97367.94
2023-03-24T22:56:36.508Z,97371.34
2023-03-24T23:01:39.368Z,97360.84
2023-03-24T23:06:42.024Z,97358.75
2023-03-24T23:11:44.769Z,97374.16
2023-03-24T23:16:47.620Z,97393.69
2023-03-24T23:21:50.197Z,97399.38
2023-03-24T23:26:52.878Z,97413.47
2023-03-24T23:31:55.669Z,97388.28
2023-03-24T23:36:58.274Z,97398.78
2023-03-24T23:42:00.775Z,97411.44
2023-03-24T23:47:03.670Z,97395.50
2023-03-24T23:52:06.327Z,97423.53
2023-03-24T23:57:09.211Z,97426.06
